METAR AND TAF INFORMATION
METAR FOR EDDL
ADDS - METARS form results

(0329 UTC 22 August 2019)
Data provider http://aviationweather.gov/metar/data/
 
METAR text: EDDL 220320Z VRB02KT CAVOK 12/09 Q1025 NOSIG
Conditions at: EDDL (DUESSELDORF , DE) observed 0320 UTC 22 August 2019
Temperature: 12.0°C (54°F)
Dewpoint: 9.0°C (48°F) [RH = 82%]
Pressure (altimeter): 30.27 inches Hg (1025.0 mb)
Winds: variable direction winds at 2 MPH (2 knots; 1.0 m/s)
Visibility: 6 or more miles (10+ km)
Ceiling: ceiling and visibility are OK
Clouds: unknown
Weather: no significant weather observed at this time

METAR text: EDDL 220250Z VRB03KT CAVOK 11/09 Q1025 NOSIG
Conditions at: EDDL (DUESSELDORF , DE) observed 0250 UTC 22 August 2019
Temperature: 11.0°C (52°F)
Dewpoint: 9.0°C (48°F) [RH = 87%]
Pressure (altimeter): 30.27 inches Hg (1025.0 mb)
Winds: variable direction winds at 3 MPH (3 knots; 1.5 m/s)
Visibility: 6 or more miles (10+ km)
Ceiling: ceiling and visibility are OK
Clouds: unknown
Weather: no significant weather observed at this time

Forecast for: EDDL (DUESSELDORF , DE)
Text: TAF EDDL 212300Z 2200/2306 VRB03KT CAVOK
Forecast period: 0000 UTC 22 August 2019 to 0600 UTC 23 August 2019
Forecast type: FROM: standard forecast or significant change
Winds: variable direction winds at 3 MPH (3 knots; 1.5 m/s)
Visibility: 6 or more miles 10+ km)
Ceiling: unknown
Clouds: missing
Weather: NSW  (no significant weather)

 AIRPORT MAP

 RUNWAY INFORMATION
Runway 05L Runway length 8858 ft Runway width 148 ft
Runway elevation 116 ft Runway displaced threshold 984 ft Runway heading 53
Runway 23R Runway length 8858 ft Runway width 148 ft
Runway elevation 124 ft Runway displaced threshold 984 ft Runway heading 233
Runway 05R Runway length 9842 ft Runway width 148 ft
Runway elevation 121 ft Runway displaced threshold 984 ft Runway heading 53
Runway 23L Runway length 9842 ft Runway width 148 ft
Runway elevation 138 ft Runway displaced threshold 984 ft Runway heading 233

 AIRPORT FREQUENCIES
Type ACC Name LANGEN RAD Frequency 128.55 MHZ
Type APP Name DIR Frequency 128.65 MHZ
Type ATIS Name ATIS Frequency 123.775 MHZ
Type CLD Name CLNC DEL Frequency 121.775 MHZ
Type GND Name GND Frequency 121.9 MHZ
Type INFO Name LANGEN INF Frequency 129.875 MHZ
Type MISC Name DE ICING Frequency 135.225 MHZ
Type TWR Name TWR Frequency 118.3 MHZ

 AIRPORT NEAR NAVIGATION AIDS
Type VOR-DME Name Dusseldorf Frequency 115150 KHZ



Powered by Virtual Airlines Manager [v2.6.2]

Impressum | Datenschutz